sensor_id;sensor_type;location;lat;lon;timestamp;temperature;humidity
18177;DHT22;9213;50.858;3.964;2022-08-20T00:01:13;21.80;59.60
18177;DHT22;9213;50.858;3.964;2022-08-20T00:03:41;21.80;59.70
18177;DHT22;9213;50.858;3.964;2022-08-20T00:06:11;21.80;59.60
18177;DHT22;9213;50.858;3.964;2022-08-20T00:08:39;21.80;59.60
18177;DHT22;9213;50.858;3.964;2022-08-20T00:11:08;21.80;59.20
18177;DHT22;9213;50.858;3.964;2022-08-20T00:13:39;21.80;59.30
18177;DHT22;9213;50.858;3.964;2022-08-20T00:16:07;21.70;60.10
18177;DHT22;9213;50.858;3.964;2022-08-20T00:18:35;21.70;59.30
18177;DHT22;9213;50.858;3.964;2022-08-20T00:21:04;21.70;59.30
18177;DHT22;9213;50.858;3.964;2022-08-20T00:23:32;21.70;59.30
18177;DHT22;9213;50.858;3.964;2022-08-20T00:26:01;21.70;59.00
18177;DHT22;9213;50.858;3.964;2022-08-20T00:28:28;21.70;59.00
18177;DHT22;9213;50.858;3.964;2022-08-20T00:30:56;21.70;59.10
18177;DHT22;9213;50.858;3.964;2022-08-20T00:33:23;21.70;59.20
18177;DHT22;9213;50.858;3.964;2022-08-20T00:35:53;21.70;59.10
18177;DHT22;9213;50.858;3.964;2022-08-20T00:38:21;21.70;59.10
18177;DHT22;9213;50.858;3.964;2022-08-20T00:40:50;21.70;59.20
18177;DHT22;9213;50.858;3.964;2022-08-20T00:43:28;21.70;59.20
18177;DHT22;9213;50.858;3.964;2022-08-20T00:45:57;21.80;59.20
18177;DHT22;9213;50.858;3.964;2022-08-20T00:48:26;21.70;59.20
18177;DHT22;9213;50.858;3.964;2022-08-20T00:51:01;21.70;59.10
18177;DHT22;9213;50.858;3.964;2022-08-20T00:53:28;21.60;59.00
18177;DHT22;9213;50.858;3.964;2022-08-20T00:55:55;21.60;58.90
18177;DHT22;9213;50.858;3.964;2022-08-20T00:58:23;21.50;59.00
18177;DHT22;9213;50.858;3.964;2022-08-20T01:00:52;21.50;59.10
18177;DHT22;9213;50.858;3.964;2022-08-20T01:03:20;21.50;59.00
18177;DHT22;9213;50.858;3.964;2022-08-20T01:05:48;21.50;59.10
18177;DHT22;9213;50.858;3.964;2022-08-20T01:08:18;21.30;59.40
18177;DHT22;9213;50.858;3.964;2022-08-20T01:10:47;21.40;59.40
18177;DHT22;9213;50.858;3.964;2022-08-20T01:13:18;21.30;59.30
18177;DHT22;9213;50.858;3.964;2022-08-20T01:15:48;21.20;59.40
18177;DHT22;9213;50.858;3.964;2022-08-20T01:18:18;21.20;59.30
18177;DHT22;9213;50.858;3.964;2022-08-20T01:20:49;21.20;59.40
18177;DHT22;9213;50.858;3.964;2022-08-20T01:23:21;21.10;59.70
18177;DHT22;9213;50.858;3.964;2022-08-20T01:26:00;21.10;59.80
18177;DHT22;9213;50.858;3.964;2022-08-20T01:28:34;21.00;59.70
18177;DHT22;9213;50.858;3.964;2022-08-20T01:31:03;21.00;59.70
18177;DHT22;9213;50.858;3.964;2022-08-20T01:33:30;21.00;59.70
18177;DHT22;9213;50.858;3.964;2022-08-20T01:35:57;20.90;59.90
18177;DHT22;9213;50.858;3.964;2022-08-20T01:38:26;20.90;60.00
18177;DHT22;9213;50.858;3.964;2022-08-20T01:44:06;20.90;60.00
18177;DHT22;9213;50.858;3.964;2022-08-20T01:46:36;20.80;59.80
18177;DHT22;9213;50.858;3.964;2022-08-20T01:49:08;20.70;60.80
18177;DHT22;9213;50.858;3.964;2022-08-20T01:51:36;20.70;60.10
18177;DHT22;9213;50.858;3.964;2022-08-20T01:54:04;20.70;60.20
18177;DHT22;9213;50.858;3.964;2022-08-20T01:56:32;20.60;60.40
18177;DHT22;9213;50.858;3.964;2022-08-20T01:59:02;20.60;60.30
18177;DHT22;9213;50.858;3.964;2022-08-20T02:01:34;20.60;60.30
18177;DHT22;9213;50.858;3.964;2022-08-20T02:04:03;20.50;60.30
18177;DHT22;9213;50.858;3.964;2022-08-20T02:06:32;20.50;60.40
18177;DHT22;9213;50.858;3.964;2022-08-20T02:09:01;20.50;60.50
18177;DHT22;9213;50.858;3.964;2022-08-20T02:11:30;20.40;60.70
18177;DHT22;9213;50.858;3.964;2022-08-20T02:13:58;20.40;60.90
18177;DHT22;9213;50.858;3.964;2022-08-20T02:16:28;20.40;60.80
18177;DHT22;9213;50.858;3.964;2022-08-20T02:18:59;20.40;60.80
18177;DHT22;9213;50.858;3.964;2022-08-20T02:21:29;20.40;60.80
18177;DHT22;9213;50.858;3.964;2022-08-20T02:23:57;20.40;60.60
18177;DHT22;9213;50.858;3.964;2022-08-20T02:26:25;20.40;60.60
18177;DHT22;9213;50.858;3.964;2022-08-20T02:28:53;20.40;60.50
18177;DHT22;9213;50.858;3.964;2022-08-20T02:31:21;20.30;60.60
18177;DHT22;9213;50.858;3.964;2022-08-20T02:33:48;20.30;60.60
18177;DHT22;9213;50.858;3.964;2022-08-20T02:36:18;20.30;60.70
18177;DHT22;9213;50.858;3.964;2022-08-20T02:38:46;20.20;60.60
18177;DHT22;9213;50.858;3.964;2022-08-20T02:41:13;20.20;60.60
18177;DHT22;9213;50.858;3.964;2022-08-20T02:43:40;20.20;60.70
18177;DHT22;9213;50.858;3.964;2022-08-20T02:46:08;20.20;60.80
18177;DHT22;9213;50.858;3.964;2022-08-20T02:48:35;20.10;61.00
18177;DHT22;9213;50.858;3.964;2022-08-20T02:51:05;20.10;61.10
18177;DHT22;9213;50.858;3.964;2022-08-20T02:53:36;20.10;61.20
18177;DHT22;9213;50.858;3.964;2022-08-20T02:56:04;20.10;61.30
18177;DHT22;9213;50.858;3.964;2022-08-20T02:58:31;20.00;61.20
18177;DHT22;9213;50.858;3.964;2022-08-20T03:00:58;20.00;61.30
18177;DHT22;9213;50.858;3.964;2022-08-20T03:03:25;20.00;61.30
18177;DHT22;9213;50.858;3.964;2022-08-20T03:05:56;20.00;61.30
18177;DHT22;9213;50.858;3.964;2022-08-20T03:08:26;20.00;61.10
18177;DHT22;9213;50.858;3.964;2022-08-20T03:10:54;19.90;60.90
18177;DHT22;9213;50.858;3.964;2022-08-20T03:13:22;19.90;61.30
18177;DHT22;9213;50.858;3.964;2022-08-20T03:15:51;19.90;61.40
18177;DHT22;9213;50.858;3.964;2022-08-20T03:18:19;19.90;61.20
18177;DHT22;9213;50.858;3.964;2022-08-20T03:20:47;19.90;61.10
18177;DHT22;9213;50.858;3.964;2022-08-20T03:23:15;19.80;61.00
18177;DHT22;9213;50.858;3.964;2022-08-20T03:25:44;19.80;60.80
18177;DHT22;9213;50.858;3.964;2022-08-20T03:28:12;19.80;60.80
18177;DHT22;9213;50.858;3.964;2022-08-20T03:30:41;19.80;60.90
18177;DHT22;9213;50.858;3.964;2022-08-20T03:33:08;19.70;61.00
18177;DHT22;9213;50.858;3.964;2022-08-20T03:35:36;19.70;61.10
18177;DHT22;9213;50.858;3.964;2022-08-20T03:38:06;19.70;61.20
18177;DHT22;9213;50.858;3.964;2022-08-20T03:40:35;19.70;61.20
18177;DHT22;9213;50.858;3.964;2022-08-20T03:43:02;19.70;61.10
18177;DHT22;9213;50.858;3.964;2022-08-20T03:45:30;19.60;61.10
18177;DHT22;9213;50.858;3.964;2022-08-20T03:47:58;19.60;61.00
18177;DHT22;9213;50.858;3.964;2022-08-20T03:50:28;19.60;61.10
18177;DHT22;9213;50.858;3.964;2022-08-20T03:52:56;19.60;61.20
18177;DHT22;9213;50.858;3.964;2022-08-20T03:55:24;19.50;61.10
18177;DHT22;9213;50.858;3.964;2022-08-20T03:57:53;19.50;61.10
18177;DHT22;9213;50.858;3.964;2022-08-20T04:00:23;19.50;61.20
18177;DHT22;9213;50.858;3.964;2022-08-20T04:02:51;19.50;61.20
18177;DHT22;9213;50.858;3.964;2022-08-20T04:05:18;19.50;61.20
18177;DHT22;9213;50.858;3.964;2022-08-20T04:07:45;19.40;61.00
18177;DHT22;9213;50.858;3.964;2022-08-20T04:10:12;19.40;60.80
18177;DHT22;9213;50.858;3.964;2022-08-20T04:12:39;19.50;61.00
18177;DHT22;9213;50.858;3.964;2022-08-20T04:15:08;19.40;60.90
18177;DHT22;9213;50.858;3.964;2022-08-20T04:17:36;19.40;61.70
18177;DHT22;9213;50.858;3.964;2022-08-20T04:20:09;19.30;60.80
18177;DHT22;9213;50.858;3.964;2022-08-20T04:22:36;19.30;61.00
18177;DHT22;9213;50.858;3.964;2022-08-20T04:25:04;19.30;61.10
18177;DHT22;9213;50.858;3.964;2022-08-20T04:27:31;19.20;61.10
18177;DHT22;9213;50.858;3.964;2022-08-20T04:29:59;19.20;61.20
18177;DHT22;9213;50.858;3.964;2022-08-20T04:32:27;19.20;61.40
18177;DHT22;9213;50.858;3.964;2022-08-20T04:34:54;19.20;61.40
18177;DHT22;9213;50.858;3.964;2022-08-20T04:37:23;19.20;62.10
18177;DHT22;9213;50.858;3.964;2022-08-20T04:39:50;19.20;61.50
18177;DHT22;9213;50.858;3.964;2022-08-20T04:42:31;19.20;61.60
18177;DHT22;9213;50.858;3.964;2022-08-20T04:44:57;19.20;62.10
18177;DHT22;9213;50.858;3.964;2022-08-20T04:47:24;19.20;61.20
18177;DHT22;9213;50.858;3.964;2022-08-20T04:49:51;19.20;61.10
18177;DHT22;9213;50.858;3.964;2022-08-20T04:52:18;19.10;61.00
18177;DHT22;9213;50.858;3.964;2022-08-20T04:54:46;19.10;61.00
18177;DHT22;9213;50.858;3.964;2022-08-20T04:57:13;19.10;61.10
18177;DHT22;9213;50.858;3.964;2022-08-20T04:59:40;19.10;61.10
18177;DHT22;9213;50.858;3.964;2022-08-20T05:02:06;19.00;61.20
18177;DHT22;9213;50.858;3.964;2022-08-20T05:04:33;19.10;61.60
18177;DHT22;9213;50.858;3.964;2022-08-20T05:07:00;19.00;61.50
18177;DHT22;9213;50.858;3.964;2022-08-20T05:09:27;19.00;61.30
18177;DHT22;9213;50.858;3.964;2022-08-20T05:11:55;19.10;61.10
18177;DHT22;9213;50.858;3.964;2022-08-20T05:14:22;19.10;61.20
18177;DHT22;9213;50.858;3.964;2022-08-20T05:16:49;19.10;61.20
18177;DHT22;9213;50.858;3.964;2022-08-20T05:19:17;19.20;61.40
18177;DHT22;9213;50.858;3.964;2022-08-20T05:21:44;19.10;61.30
18177;DHT22;9213;50.858;3.964;2022-08-20T05:24:11;19.20;61.10
18177;DHT22;9213;50.858;3.964;2022-08-20T05:26:38;19.20;60.80
18177;DHT22;9213;50.858;3.964;2022-08-20T05:29:07;19.30;61.60
18177;DHT22;9213;50.858;3.964;2022-08-20T05:31:34;19.30;60.60
18177;DHT22;9213;50.858;3.964;2022-08-20T05:34:04;19.30;60.50
18177;DHT22;9213;50.858;3.964;2022-08-20T05:36:33;19.40;60.60
18177;DHT22;9213;50.858;3.964;2022-08-20T05:39:00;19.40;60.70
18177;DHT22;9213;50.858;3.964;2022-08-20T05:41:27;19.40;60.70
18177;DHT22;9213;50.858;3.964;2022-08-20T05:43:54;19.50;60.80
18177;DHT22;9213;50.858;3.964;2022-08-20T05:46:22;19.50;60.80
18177;DHT22;9213;50.858;3.964;2022-08-20T05:48:49;19.50;60.50
18177;DHT22;9213;50.858;3.964;2022-08-20T05:51:16;19.50;60.30
18177;DHT22;9213;50.858;3.964;2022-08-20T05:53:43;19.60;60.40
18177;DHT22;9213;50.858;3.964;2022-08-20T05:56:10;19.60;60.40
18177;DHT22;9213;50.858;3.964;2022-08-20T05:58:37;19.70;60.50
18177;DHT22;9213;50.858;3.964;2022-08-20T06:01:04;19.70;60.70
18177;DHT22;9213;50.858;3.964;2022-08-20T06:03:32;19.80;60.60
18177;DHT22;9213;50.858;3.964;2022-08-20T06:06:17;19.90;60.70
18177;DHT22;9213;50.858;3.964;2022-08-20T06:08:45;19.90;60.40
18177;DHT22;9213;50.858;3.964;2022-08-20T06:11:12;20.00;60.50
18177;DHT22;9213;50.858;3.964;2022-08-20T06:13:38;20.00;60.40
18177;DHT22;9213;50.858;3.964;2022-08-20T06:16:05;20.10;60.30
18177;DHT22;9213;50.858;3.964;2022-08-20T06:18:33;20.10;60.30
18177;DHT22;9213;50.858;3.964;2022-08-20T06:21:00;20.20;60.40
18177;DHT22;9213;50.858;3.964;2022-08-20T06:23:27;20.30;60.30
18177;DHT22;9213;50.858;3.964;2022-08-20T06:25:54;20.30;60.00
18177;DHT22;9213;50.858;3.964;2022-08-20T06:28:21;20.40;59.90
18177;DHT22;9213;50.858;3.964;2022-08-20T06:30:48;20.40;59.90
18177;DHT22;9213;50.858;3.964;2022-08-20T06:33:14;20.50;60.00
18177;DHT22;9213;50.858;3.964;2022-08-20T06:35:43;20.50;60.10
18177;DHT22;9213;50.858;3.964;2022-08-20T06:38:10;20.60;60.10
18177;DHT22;9213;50.858;3.964;2022-08-20T06:40:37;20.60;60.20
18177;DHT22;9213;50.858;3.964;2022-08-20T06:43:04;20.60;61.00
18177;DHT22;9213;50.858;3.964;2022-08-20T06:45:35;20.70;60.50
18177;DHT22;9213;50.858;3.964;2022-08-20T06:48:06;20.80;60.60
18177;DHT22;9213;50.858;3.964;2022-08-20T06:50:36;20.80;60.80
18177;DHT22;9213;50.858;3.964;2022-08-20T06:53:05;20.90;61.00
18177;DHT22;9213;50.858;3.964;2022-08-20T06:55:32;21.00;61.00
18177;DHT22;9213;50.858;3.964;2022-08-20T06:58:01;21.10;61.10
18177;DHT22;9213;50.858;3.964;2022-08-20T07:00:29;21.20;61.20
18177;DHT22;9213;50.858;3.964;2022-08-20T07:02:57;21.40;62.20
18177;DHT22;9213;50.858;3.964;2022-08-20T07:05:25;21.90;62.70
18177;DHT22;9213;50.858;3.964;2022-08-20T07:07:52;23.10;60.20
18177;DHT22;9213;50.858;3.964;2022-08-20T07:10:22;24.50;55.90
18177;DHT22;9213;50.858;3.964;2022-08-20T07:12:49;26.10;51.30
18177;DHT22;9213;50.858;3.964;2022-08-20T07:15:18;27.50;46.50
18177;DHT22;9213;50.858;3.964;2022-08-20T07:17:48;28.90;42.50
18177;DHT22;9213;50.858;3.964;2022-08-20T07:20:16;30.00;40.20
18177;DHT22;9213;50.858;3.964;2022-08-20T07:22:42;30.90;38.30
18177;DHT22;9213;50.858;3.964;2022-08-20T07:25:11;31.80;36.90
18177;DHT22;9213;50.858;3.964;2022-08-20T07:27:41;32.50;35.80
18177;DHT22;9213;50.858;3.964;2022-08-20T07:30:11;33.20;34.50
18177;DHT22;9213;50.858;3.964;2022-08-20T07:32:55;33.70;33.00
18177;DHT22;9213;50.858;3.964;2022-08-20T07:35:23;34.20;32.80
18177;DHT22;9213;50.858;3.964;2022-08-20T07:37:50;34.50;31.70
18177;DHT22;9213;50.858;3.964;2022-08-20T07:40:22;34.70;31.60
18177;DHT22;9213;50.858;3.964;2022-08-20T07:42:51;35.00;31.50
18177;DHT22;9213;50.858;3.964;2022-08-20T07:45:18;35.30;30.40
18177;DHT22;9213;50.858;3.964;2022-08-20T07:47:46;35.50;30.50
18177;DHT22;9213;50.858;3.964;2022-08-20T07:50:17;35.60;29.30
18177;DHT22;9213;50.858;3.964;2022-08-20T07:52:44;35.80;29.80
18177;DHT22;9213;50.858;3.964;2022-08-20T07:55:14;36.00;29.60
18177;DHT22;9213;50.858;3.964;2022-08-20T07:57:42;36.10;29.30
18177;DHT22;9213;50.858;3.964;2022-08-20T08:00:14;36.40;28.50
18177;DHT22;9213;50.858;3.964;2022-08-20T08:02:42;36.50;27.40
18177;DHT22;9213;50.858;3.964;2022-08-20T08:05:09;36.70;27.20
18177;DHT22;9213;50.858;3.964;2022-08-20T08:07:36;36.90;25.90
18177;DHT22;9213;50.858;3.964;2022-08-20T08:10:07;37.00;26.20
18177;DHT22;9213;50.858;3.964;2022-08-20T08:12:37;37.20;26.20
18177;DHT22;9213;50.858;3.964;2022-08-20T08:15:07;37.30;25.90
18177;DHT22;9213;50.858;3.964;2022-08-20T08:17:36;37.40;25.00
18177;DHT22;9213;50.858;3.964;2022-08-20T08:20:04;37.50;25.00
18177;DHT22;9213;50.858;3.964;2022-08-20T08:22:32;37.60;24.80
18177;DHT22;9213;50.858;3.964;2022-08-20T08:24:59;37.60;25.10
18177;DHT22;9213;50.858;3.964;2022-08-20T08:27:27;37.60;24.20
18177;DHT22;9213;50.858;3.964;2022-08-20T08:29:57;37.70;24.20
18177;DHT22;9213;50.858;3.964;2022-08-20T08:32:24;37.70;24.30
18177;DHT22;9213;50.858;3.964;2022-08-20T08:34:52;37.80;23.80
18177;DHT22;9213;50.858;3.964;2022-08-20T08:37:19;38.00;24.00
18177;DHT22;9213;50.858;3.964;2022-08-20T08:39:46;38.20;23.10
18177;DHT22;9213;50.858;3.964;2022-08-20T08:42:22;38.20;23.10
18177;DHT22;9213;50.858;3.964;2022-08-20T08:44:51;38.20;23.30
18177;DHT22;9213;50.858;3.964;2022-08-20T08:47:24;38.00;23.20
18177;DHT22;9213;50.858;3.964;2022-08-20T08:49:53;38.00;23.10
18177;DHT22;9213;50.858;3.964;2022-08-20T08:52:23;37.90;22.70
18177;DHT22;9213;50.858;3.964;2022-08-20T08:54:54;37.60;23.30
18177;DHT22;9213;50.858;3.964;2022-08-20T08:57:23;37.40;24.10
18177;DHT22;9213;50.858;3.964;2022-08-20T08:59:55;37.40;23.60
18177;DHT22;9213;50.858;3.964;2022-08-20T09:02:24;37.40;24.30
18177;DHT22;9213;50.858;3.964;2022-08-20T09:04:55;37.30;23.40
18177;DHT22;9213;50.858;3.964;2022-08-20T09:07:25;37.10;23.80
18177;DHT22;9213;50.858;3.964;2022-08-20T09:09:53;36.90;22.80
18177;DHT22;9213;50.858;3.964;2022-08-20T09:12:22;36.70;23.20
18177;DHT22;9213;50.858;3.964;2022-08-20T09:14:52;36.50;24.50
18177;DHT22;9213;50.858;3.964;2022-08-20T09:17:21;36.20;24.50
18177;DHT22;9213;50.858;3.964;2022-08-20T09:19:48;36.00;24.20
18177;DHT22;9213;50.858;3.964;2022-08-20T09:22:20;36.00;24.70
18177;DHT22;9213;50.858;3.964;2022-08-20T09:24:48;36.00;24.10
18177;DHT22;9213;50.858;3.964;2022-08-20T09:27:15;36.00;24.10
18177;DHT22;9213;50.858;3.964;2022-08-20T09:29:42;35.90;23.80
18177;DHT22;9213;50.858;3.964;2022-08-20T09:32:11;35.90;23.70
18177;DHT22;9213;50.858;3.964;2022-08-20T09:34:41;35.90;23.40
18177;DHT22;9213;50.858;3.964;2022-08-20T09:37:09;35.90;23.20
18177;DHT22;9213;50.858;3.964;2022-08-20T09:39:37;36.00;21.70
18177;DHT22;9213;50.858;3.964;2022-08-20T09:42:08;35.90;21.60
18177;DHT22;9213;50.858;3.964;2022-08-20T09:44:35;35.50;22.30
18177;DHT22;9213;50.858;3.964;2022-08-20T09:47:02;35.00;22.70
18177;DHT22;9213;50.858;3.964;2022-08-20T09:49:29;34.50;22.80
18177;DHT22;9213;50.858;3.964;2022-08-20T09:51:56;34.10;23.50
18177;DHT22;9213;50.858;3.964;2022-08-20T09:54:24;33.60;23.50
18177;DHT22;9213;50.858;3.964;2022-08-20T09:56:56;33.10;24.70
18177;DHT22;9213;50.858;3.964;2022-08-20T09:59:23;32.60;25.60
18177;DHT22;9213;50.858;3.964;2022-08-20T10:01:51;32.20;26.30
18177;DHT22;9213;50.858;3.964;2022-08-20T10:04:18;32.00;27.50
18177;DHT22;9213;50.858;3.964;2022-08-20T10:06:45;32.10;27.30
18177;DHT22;9213;50.858;3.964;2022-08-20T10:09:12;32.30;26.70
18177;DHT22;9213;50.858;3.964;2022-08-20T10:11:39;32.60;25.70
18177;DHT22;9213;50.858;3.964;2022-08-20T10:14:07;32.90;25.40
18177;DHT22;9213;50.858;3.964;2022-08-20T10:16:34;33.40;25.40
18177;DHT22;9213;50.858;3.964;2022-08-20T10:19:01;33.80;24.10
18177;DHT22;9213;50.858;3.964;2022-08-20T10:21:29;34.30;23.60
18177;DHT22;9213;50.858;3.964;2022-08-20T10:23:56;34.70;23.20
18177;DHT22;9213;50.858;3.964;2022-08-20T10:26:23;34.90;23.10
18177;DHT22;9213;50.858;3.964;2022-08-20T10:28:51;35.10;22.70
18177;DHT22;9213;50.858;3.964;2022-08-20T10:31:19;35.20;22.30
18177;DHT22;9213;50.858;3.964;2022-08-20T10:33:46;35.20;22.00
18177;DHT22;9213;50.858;3.964;2022-08-20T10:36:15;35.20;22.30
18177;DHT22;9213;50.858;3.964;2022-08-20T10:38:42;35.20;21.60
18177;DHT22;9213;50.858;3.964;2022-08-20T10:41:10;35.20;22.00
18177;DHT22;9213;50.858;3.964;2022-08-20T10:43:36;35.10;21.80
18177;DHT22;9213;50.858;3.964;2022-08-20T10:46:03;34.90;21.60
18177;DHT22;9213;50.858;3.964;2022-08-20T10:48:32;34.70;22.10
18177;DHT22;9213;50.858;3.964;2022-08-20T10:50:59;34.60;22.00
18177;DHT22;9213;50.858;3.964;2022-08-20T10:53:26;34.70;23.10
18177;DHT22;9213;50.858;3.964;2022-08-20T10:55:53;34.90;22.50
18177;DHT22;9213;50.858;3.964;2022-08-20T10:58:20;35.20;21.70
18177;DHT22;9213;50.858;3.964;2022-08-20T11:00:47;35.40;21.00
18177;DHT22;9213;50.858;3.964;2022-08-20T11:03:14;35.60;21.00
18177;DHT22;9213;50.858;3.964;2022-08-20T11:05:42;35.70;19.90
18177;DHT22;9213;50.858;3.964;2022-08-20T11:08:09;35.80;20.60
18177;DHT22;9213;50.858;3.964;2022-08-20T11:10:36;35.80;20.90
18177;DHT22;9213;50.858;3.964;2022-08-20T11:13:05;35.90;20.50
18177;DHT22;9213;50.858;3.964;2022-08-20T11:15:34;36.00;20.90
18177;DHT22;9213;50.858;3.964;2022-08-20T11:18:02;36.10;20.00
18177;DHT22;9213;50.858;3.964;2022-08-20T11:20:29;36.10;20.00
18177;DHT22;9213;50.858;3.964;2022-08-20T11:22:58;36.10;19.50
18177;DHT22;9213;50.858;3.964;2022-08-20T11:25:25;36.00;20.00
18177;DHT22;9213;50.858;3.964;2022-08-20T11:27:53;36.00;20.30
18177;DHT22;9213;50.858;3.964;2022-08-20T11:30:22;36.00;20.70
18177;DHT22;9213;50.858;3.964;2022-08-20T11:32:49;36.00;21.00
18177;DHT22;9213;50.858;3.964;2022-08-20T11:35:16;36.10;20.10
18177;DHT22;9213;50.858;3.964;2022-08-20T11:37:48;36.00;20.00
18177;DHT22;9213;50.858;3.964;2022-08-20T11:40:18;35.90;19.50
18177;DHT22;9213;50.858;3.964;2022-08-20T11:42:46;35.60;19.90
18177;DHT22;9213;50.858;3.964;2022-08-20T11:45:13;35.60;20.70
18177;DHT22;9213;50.858;3.964;2022-08-20T11:47:40;35.60;21.20
18177;DHT22;9213;50.858;3.964;2022-08-20T11:50:09;35.80;20.70
18177;DHT22;9213;50.858;3.964;2022-08-20T11:52:36;35.80;20.10
18177;DHT22;9213;50.858;3.964;2022-08-20T11:55:05;35.80;20.00
18177;DHT22;9213;50.858;3.964;2022-08-20T11:57:35;35.50;20.10
18177;DHT22;9213;50.858;3.964;2022-08-20T12:00:05;35.40;20.60
18177;DHT22;9213;50.858;3.964;2022-08-20T12:02:33;35.20;20.60
18177;DHT22;9213;50.858;3.964;2022-08-20T12:05:00;35.20;21.10
18177;DHT22;9213;50.858;3.964;2022-08-20T12:07:27;35.30;21.60
18177;DHT22;9213;50.858;3.964;2022-08-20T12:09:53;35.40;20.50
18177;DHT22;9213;50.858;3.964;2022-08-20T12:12:21;35.50;20.10
18177;DHT22;9213;50.858;3.964;2022-08-20T12:14:50;35.60;19.90
18177;DHT22;9213;50.858;3.964;2022-08-20T12:17:19;35.60;20.60
18177;DHT22;9213;50.858;3.964;2022-08-20T12:19:49;35.60;20.80
18177;DHT22;9213;50.858;3.964;2022-08-20T12:22:17;35.70;20.40
18177;DHT22;9213;50.858;3.964;2022-08-20T12:24:44;35.80;20.20
18177;DHT22;9213;50.858;3.964;2022-08-20T12:27:12;35.80;20.30
18177;DHT22;9213;50.858;3.964;2022-08-20T12:29:40;35.80;20.90
18177;DHT22;9213;50.858;3.964;2022-08-20T12:32:09;35.80;20.10
18177;DHT22;9213;50.858;3.964;2022-08-20T12:34:37;35.90;20.00
18177;DHT22;9213;50.858;3.964;2022-08-20T12:37:07;35.90;20.20
18177;DHT22;9213;50.858;3.964;2022-08-20T12:39:37;36.00;20.30
18177;DHT22;9213;50.858;3.964;2022-08-20T12:42:04;36.00;19.90
18177;DHT22;9213;50.858;3.964;2022-08-20T12:44:31;36.10;20.50
18177;DHT22;9213;50.858;3.964;2022-08-20T12:47:06;36.10;19.90
18177;DHT22;9213;50.858;3.964;2022-08-20T12:49:35;36.20;19.50
18177;DHT22;9213;50.858;3.964;2022-08-20T12:52:02;36.10;19.20
18177;DHT22;9213;50.858;3.964;2022-08-20T12:54:29;36.00;19.50
18177;DHT22;9213;50.858;3.964;2022-08-20T12:56:56;35.90;19.60
18177;DHT22;9213;50.858;3.964;2022-08-20T12:59:24;35.90;19.90
18177;DHT22;9213;50.858;3.964;2022-08-20T13:01:51;36.00;19.30
18177;DHT22;9213;50.858;3.964;2022-08-20T13:04:19;36.20;19.90
18177;DHT22;9213;50.858;3.964;2022-08-20T13:06:47;36.30;19.70
18177;DHT22;9213;50.858;3.964;2022-08-20T13:09:15;36.30;19.30
18177;DHT22;9213;50.858;3.964;2022-08-20T13:11:43;36.10;19.60
18177;DHT22;9213;50.858;3.964;2022-08-20T13:14:10;36.10;19.70
18177;DHT22;9213;50.858;3.964;2022-08-20T13:16:37;36.00;19.50
18177;DHT22;9213;50.858;3.964;2022-08-20T13:19:03;36.00;20.00
18177;DHT22;9213;50.858;3.964;2022-08-20T13:21:30;36.20;19.20
18177;DHT22;9213;50.858;3.964;2022-08-20T13:23:59;36.40;19.40
18177;DHT22;9213;50.858;3.964;2022-08-20T13:26:26;36.40;19.30
18177;DHT22;9213;50.858;3.964;2022-08-20T13:28:54;36.40;19.20
18177;DHT22;9213;50.858;3.964;2022-08-20T13:31:21;36.30;18.90
18177;DHT22;9213;50.858;3.964;2022-08-20T13:33:48;36.30;18.80
18177;DHT22;9213;50.858;3.964;2022-08-20T13:36:14;36.20;19.00
18177;DHT22;9213;50.858;3.964;2022-08-20T13:38:41;36.10;19.20
18177;DHT22;9213;50.858;3.964;2022-08-20T13:41:09;36.00;19.70
18177;DHT22;9213;50.858;3.964;2022-08-20T13:43:36;36.00;19.80
18177;DHT22;9213;50.858;3.964;2022-08-20T13:46:03;36.00;20.00
18177;DHT22;9213;50.858;3.964;2022-08-20T13:48:31;36.10;20.10
18177;DHT22;9213;50.858;3.964;2022-08-20T13:50:57;36.10;20.00
18177;DHT22;9213;50.858;3.964;2022-08-20T13:53:25;36.20;19.70
18177;DHT22;9213;50.858;3.964;2022-08-20T13:55:52;36.30;19.50
18177;DHT22;9213;50.858;3.964;2022-08-20T13:58:20;36.30;19.80
18177;DHT22;9213;50.858;3.964;2022-08-20T14:00:47;36.20;19.50
18177;DHT22;9213;50.858;3.964;2022-08-20T14:03:15;36.10;20.10
18177;DHT22;9213;50.858;3.964;2022-08-20T14:05:42;36.00;20.10
18177;DHT22;9213;50.858;3.964;2022-08-20T14:08:12;36.00;20.30
18177;DHT22;9213;50.858;3.964;2022-08-20T14:10:40;35.90;19.80
18177;DHT22;9213;50.858;3.964;2022-08-20T14:13:07;35.90;20.00
18177;DHT22;9213;50.858;3.964;2022-08-20T14:15:36;35.90;19.80
18177;DHT22;9213;50.858;3.964;2022-08-20T14:18:03;35.80;19.40
18177;DHT22;9213;50.858;3.964;2022-08-20T14:20:32;35.70;19.80
18177;DHT22;9213;50.858;3.964;2022-08-20T14:23:00;35.50;20.20
18177;DHT22;9213;50.858;3.964;2022-08-20T14:25:28;35.20;20.10
18177;DHT22;9213;50.858;3.964;2022-08-20T14:27:55;35.00;20.50
18177;DHT22;9213;50.858;3.964;2022-08-20T14:30:25;34.80;20.30
18177;DHT22;9213;50.858;3.964;2022-08-20T14:32:54;34.60;20.60
18177;DHT22;9213;50.858;3.964;2022-08-20T14:35:21;34.50;21.00
18177;DHT22;9213;50.858;3.964;2022-08-20T14:37:50;34.30;21.70
18177;DHT22;9213;50.858;3.964;2022-08-20T14:40:19;34.20;21.50
18177;DHT22;9213;50.858;3.964;2022-08-20T14:42:46;34.20;21.90
18177;DHT22;9213;50.858;3.964;2022-08-20T14:45:15;34.20;22.30
18177;DHT22;9213;50.858;3.964;2022-08-20T14:47:44;34.30;22.30
18177;DHT22;9213;50.858;3.964;2022-08-20T14:50:16;34.50;21.10
18177;DHT22;9213;50.858;3.964;2022-08-20T14:52:43;34.50;20.80
18177;DHT22;9213;50.858;3.964;2022-08-20T14:55:13;34.50;20.70
18177;DHT22;9213;50.858;3.964;2022-08-20T14:57:41;34.50;20.60
18177;DHT22;9213;50.858;3.964;2022-08-20T15:00:12;34.50;20.40
18177;DHT22;9213;50.858;3.964;2022-08-20T15:02:40;34.50;21.10
18177;DHT22;9213;50.858;3.964;2022-08-20T15:05:07;34.40;21.20
18177;DHT22;9213;50.858;3.964;2022-08-20T15:07:39;34.40;21.40
18177;DHT22;9213;50.858;3.964;2022-08-20T15:10:09;34.30;21.60
18177;DHT22;9213;50.858;3.964;2022-08-20T15:12:36;34.20;21.80
18177;DHT22;9213;50.858;3.964;2022-08-20T15:15:06;34.00;22.20
18177;DHT22;9213;50.858;3.964;2022-08-20T15:17:34;34.00;22.60
18177;DHT22;9213;50.858;3.964;2022-08-20T15:20:02;33.90;21.90
18177;DHT22;9213;50.858;3.964;2022-08-20T15:22:32;33.90;21.80
18177;DHT22;9213;50.858;3.964;2022-08-20T15:25:01;33.80;21.80
18177;DHT22;9213;50.858;3.964;2022-08-20T15:27:28;33.90;21.40
18177;DHT22;9213;50.858;3.964;2022-08-20T15:29:54;33.80;21.40
18177;DHT22;9213;50.858;3.964;2022-08-20T15:32:21;33.80;21.10
18177;DHT22;9213;50.858;3.964;2022-08-20T15:34:48;33.60;21.60
18177;DHT22;9213;50.858;3.964;2022-08-20T15:37:17;33.50;21.60
18177;DHT22;9213;50.858;3.964;2022-08-20T15:39:45;33.30;22.30
18177;DHT22;9213;50.858;3.964;2022-08-20T15:42:14;33.10;22.70
18177;DHT22;9213;50.858;3.964;2022-08-20T15:44:42;33.00;22.60
18177;DHT22;9213;50.858;3.964;2022-08-20T15:47:21;32.90;21.60
18177;DHT22;9213;50.858;3.964;2022-08-20T15:49:51;32.90;22.80
18177;DHT22;9213;50.858;3.964;2022-08-20T15:52:19;32.90;21.90
18177;DHT22;9213;50.858;3.964;2022-08-20T15:54:46;32.70;22.00